Time;durP1;ratioP1;P1;durP2;ratioP2;P2;SDS_P1;SDS_P2;PMS_P1;PMS_P2;Temp;Humidity;BMP_temperature;BMP_pressure;BME280_temperature;BME280_humidity;BME280_pressure;Samples;Min_cycle;Max_cycle;Signal;HPM_P1;HPM_P2
2021/05/14 00:00:38;;;;;;;50.13;37.70;;;;;;;;;;1470030;40;20445;-79
2021/05/14 00:01:40;;;;;;;46.67;35.75;;;;;;;;;;1470222;40;20405;-80
2021/05/14 00:02:42;;;;;;;47.10;35.78;;;;;;;;;;1477719;40;20406;-81
2021/05/14 00:03:43;;;;;;;46.20;35.47;;;;;;;;;;1469771;40;20466;-80
2021/05/14 00:04:45;;;;;;;45.55;35.42;;;;;;;;;;1469731;40;20473;-80
2021/05/14 00:05:47;;;;;;;47.53;35.92;;;;;;;;;;1477149;40;20409;-80
2021/05/14 00:06:49;;;;;;;47.92;36.20;;;;;;;;;;1476102;40;20856;-80
2021/05/14 00:07:51;;;;;;;46.95;36.88;;;;;;;;;;1469776;40;20418;-80
2021/05/14 00:08:53;;;;;;;51.83;37.85;;;;;;;;;;1465925;40;20428;-79
2021/05/14 00:09:54;;;;;;;47.55;36.45;;;;;;;;;;1465912;40;20427;-79
2021/05/14 00:10:56;;;;;;;50.25;37.55;;;;;;;;;;1473943;40;20400;-80
2021/05/14 00:11:58;;;;;;;53.40;39.08;;;;;;;;;;1474504;40;20423;-79
2021/05/14 00:13:00;;;;;;;53.97;39.20;;;;;;;;;;1477045;40;20402;-80
2021/05/14 00:14:02;;;;;;;53.88;39.15;;;;;;;;;;1478873;40;20417;-80
2021/05/14 00:15:06;;;;;;;52.22;39.30;;;;;;;;;;1477975;40;20827;-80
2021/05/14 00:16:08;;;;;;;49.15;37.65;;;;;;;;;;1474271;40;20408;-81
2021/05/14 00:17:09;;;;;;;48.28;38.17;;;;;;;;;;1473385;40;20454;-81
2021/05/14 00:18:12;;;;;;;53.15;38.50;;;;;;;;;;1472808;40;20914;-81
2021/05/14 00:19:14;;;;;;;53.57;39.87;;;;;;;;;;1473659;40;21310;-80
2021/05/14 00:20:16;;;;;;;54.35;41.30;;;;;;;;;;1465943;40;20494;-79
2021/05/14 00:21:18;;;;;;;56.80;41.97;;;;;;;;;;1461905;40;20413;-80
2021/05/14 00:22:20;;;;;;;58.25;39.67;;;;;;;;;;1471545;40;20394;-79
2021/05/14 00:23:23;;;;;;;56.63;40.85;;;;;;;;;;1474172;40;20455;-79
2021/05/14 00:24:25;;;;;;;57.47;41.88;;;;;;;;;;1478263;40;21105;-79
2021/05/14 00:25:27;;;;;;;57.55;40.28;;;;;;;;;;1478378;40;20399;-79
2021/05/14 00:26:28;;;;;;;60.58;40.63;;;;;;;;;;1478639;40;20425;-79
2021/05/14 00:27:30;;;;;;;61.03;40.92;;;;;;;;;;1478048;40;20435;-79
2021/05/14 00:28:31;;;;;;;62.15;40.80;;;;;;;;;;1477669;40;20920;-79
2021/05/14 00:29:33;;;;;;;59.20;40.87;;;;;;;;;;1474015;40;20428;-79
2021/05/14 00:30:35;;;;;;;55.33;41.78;;;;;;;;;;1474208;40;20407;-79
2021/05/14 00:31:37;;;;;;;59.53;40.42;;;;;;;;;;1473097;40;20740;-80
2021/05/14 00:32:39;;;;;;;60.97;40.47;;;;;;;;;;1478332;40;20421;-79
2021/05/14 00:33:40;;;;;;;55.78;39.30;;;;;;;;;;1477857;40;20536;-79
2021/05/14 00:34:42;;;;;;;58.30;40.28;;;;;;;;;;1473808;40;20392;-79
2021/05/14 00:35:43;;;;;;;58.47;39.88;;;;;;;;;;1472748;40;20416;-80
2021/05/14 00:36:45;;;;;;;59.53;40.20;;;;;;;;;;1470215;40;20781;-79
2021/05/14 00:37:47;;;;;;;57.78;39.45;;;;;;;;;;1473176;40;20450;-79
2021/05/14 00:38:48;;;;;;;58.20;38.45;;;;;;;;;;1475926;40;20423;-79
2021/05/14 00:39:50;;;;;;;56.65;40.70;;;;;;;;;;1474655;40;20404;-80
2021/05/14 00:40:51;;;;;;;55.85;38.75;;;;;;;;;;1473376;40;20424;-80
2021/05/14 00:41:53;;;;;;;58.03;40.33;;;;;;;;;;1470124;40;20425;-79
2021/05/14 00:42:55;;;;;;;55.15;39.17;;;;;;;;;;1476269;40;20401;-79
2021/05/14 00:43:57;;;;;;;57.33;38.92;;;;;;;;;;1477364;40;20789;-79
2021/05/14 00:44:58;;;;;;;55.83;39.65;;;;;;;;;;1478722;40;20421;-79
2021/05/14 00:46:02;;;;;;;61.05;40.30;;;;;;;;;;1478368;40;20406;-80
2021/05/14 00:47:07;;;;;;;57.97;40.35;;;;;;;;;;1477736;40;20438;-79
2021/05/14 00:48:08;;;;;;;63.53;40.60;;;;;;;;;;1474266;40;20555;-80
2021/05/14 00:49:10;;;;;;;61.50;40.15;;;;;;;;;;1473110;40;20860;-79
2021/05/14 00:50:12;;;;;;;59.65;40.20;;;;;;;;;;1477658;40;20759;-80
2021/05/14 00:51:13;;;;;;;59.70;40.45;;;;;;;;;;1478396;40;20437;-79
2021/05/14 00:52:23;;;;;;;60.13;41.35;;;;;;;;;;1476072;40;20922;-79
2021/05/14 00:53:25;;;;;;;65.25;42.20;;;;;;;;;;1474188;40;20416;-80
2021/05/14 00:54:28;;;;;;;62.70;40.55;;;;;;;;;;1478026;40;20410;-79
2021/05/14 00:55:30;;;;;;;59.58;41.17;;;;;;;;;;1478184;40;20411;-79
2021/05/14 00:56:31;;;;;;;61.38;42.75;;;;;;;;;;1476859;40;20422;-79
2021/05/14 00:57:34;;;;;;;53.92;39.13;;;;;;;;;;1477857;40;20402;-79
2021/05/14 00:58:35;;;;;;;55.00;39.13;;;;;;;;;;1477826;40;20703;-79
2021/05/14 00:59:37;;;;;;;52.45;39.00;;;;;;;;;;1478471;40;20435;-79
2021/05/14 01:00:38;;;;;;;55.10;38.42;;;;;;;;;;1469800;40;20544;-79
2021/05/14 01:01:40;;;;;;;56.20;39.67;;;;;;;;;;1470027;40;20461;-79
2021/05/14 01:02:42;;;;;;;57.03;39.90;;;;;;;;;;1478032;40;20661;-80
2021/05/14 01:03:44;;;;;;;53.60;38.70;;;;;;;;;;1469510;40;20934;-79
2021/05/14 01:04:46;;;;;;;52.03;37.33;;;;;;;;;;1473242;40;21180;-79
2021/05/14 01:05:47;;;;;;;54.60;37.90;;;;;;;;;;1478205;40;20410;-79
2021/05/14 01:06:50;;;;;;;54.10;38.28;;;;;;;;;;1477762;40;20423;-79
2021/05/14 01:07:52;;;;;;;50.42;36.78;;;;;;;;;;1474676;40;20415;-80
2021/05/14 01:08:57;;;;;;;53.03;38.45;;;;;;;;;;1473521;40;20902;-80
2021/05/14 01:09:59;;;;;;;56.88;39.28;;;;;;;;;;1469872;40;20708;-80
2021/05/14 01:11:01;;;;;;;54.55;37.53;;;;;;;;;;1473391;40;20474;-80
2021/05/14 01:12:02;;;;;;;51.88;36.67;;;;;;;;;;1474644;40;20403;-80
2021/05/14 01:13:05;;;;;;;54.13;37.97;;;;;;;;;;1473723;40;20408;-80
2021/05/14 01:14:08;;;;;;;53.78;38.35;;;;;;;;;;1469952;40;20420;-80
2021/05/14 01:15:10;;;;;;;52.75;37.78;;;;;;;;;;1473801;40;20875;-80
2021/05/14 01:16:12;;;;;;;52.05;38.55;;;;;;;;;;1474009;40;20395;-81
2021/05/14 01:17:14;;;;;;;51.38;39.33;;;;;;;;;;1469605;40;20433;-80
2021/05/14 01:18:15;;;;;;;51.67;38.45;;;;;;;;;;1469833;40;20405;-81
2021/05/14 01:19:17;;;;;;;52.83;39.63;;;;;;;;;;1469242;40;20434;-81
2021/05/14 01:20:19;;;;;;;57.35;41.50;;;;;;;;;;1473656;40;20807;-80
2021/05/14 01:21:21;;;;;;;58.88;40.60;;;;;;;;;;1476232;40;20960;-80
2021/05/14 01:22:25;;;;;;;55.03;39.95;;;;;;;;;;1478002;40;20710;-80
2021/05/14 01:23:27;;;;;;;55.33;39.83;;;;;;;;;;1476880;40;20412;-80
2021/05/14 01:24:29;;;;;;;57.63;41.30;;;;;;;;;;1480200;40;21237;-80
2021/05/14 01:25:31;;;;;;;58.03;41.42;;;;;;;;;;1479717;40;20573;-81
2021/05/14 01:26:33;;;;;;;60.03;41.25;;;;;;;;;;1476120;40;20424;-80
2021/05/14 01:27:34;;;;;;;57.17;40.78;;;;;;;;;;1475149;40;20412;-80
2021/05/14 01:28:36;;;;;;;54.30;41.05;;;;;;;;;;1478251;40;21159;-79
2021/05/14 01:29:38;;;;;;;56.70;42.72;;;;;;;;;;1477958;40;20405;-80
2021/05/14 01:30:40;;;;;;;61.05;42.50;;;;;;;;;;1473990;40;20474;-80
2021/05/14 01:31:41;;;;;;;56.90;41.92;;;;;;;;;;1475243;40;20412;-80
2021/05/14 01:32:43;;;;;;;61.08;41.72;;;;;;;;;;1470483;40;20413;-81
2021/05/14 01:33:46;;;;;;;58.58;41.83;;;;;;;;;;1473230;40;20419;-81
2021/05/14 01:34:48;;;;;;;61.78;43.25;;;;;;;;;;1478201;40;20420;-80
2021/05/14 01:35:49;;;;;;;62.15;43.50;;;;;;;;;;1477632;40;20728;-81
2021/05/14 01:36:52;;;;;;;64.18;45.00;;;;;;;;;;1477476;40;20398;-81
2021/05/14 01:37:53;;;;;;;62.47;42.75;;;;;;;;;;1474176;40;20400;-80
2021/05/14 01:38:55;;;;;;;64.15;44.00;;;;;;;;;;1468379;40;20496;-80
2021/05/14 01:39:57;;;;;;;66.03;43.83;;;;;;;;;;1470203;40;20421;-80
2021/05/14 01:40:59;;;;;;;62.05;42.92;;;;;;;;;;1478612;40;20409;-80
2021/05/14 01:42:02;;;;;;;60.97;43.05;;;;;;;;;;1478877;40;20424;-80
2021/05/14 01:43:04;;;;;;;64.63;44.70;;;;;;;;;;1475567;40;20411;-80
2021/05/14 01:44:06;;;;;;;63.22;43.95;;;;;;;;;;1474082;40;20494;-80
2021/05/14 01:45:08;;;;;;;61.15;43.75;;;;;;;;;;1474175;40;20794;-80
2021/05/14 01:46:10;;;;;;;64.25;42.65;;;;;;;;;;1475687;40;21135;-80
2021/05/14 01:47:17;;;;;;;59.55;43.28;;;;;;;;;;1474300;40;20521;-81
2021/05/14 01:48:19;;;;;;;58.30;41.33;;;;;;;;;;1478214;40;20402;-80
2021/05/14 01:49:21;;;;;;;63.53;44.17;;;;;;;;;;1478622;40;20499;-80
2021/05/14 01:50:23;;;;;;;55.90;41.38;;;;;;;;;;1473448;40;20416;-80
2021/05/14 01:51:26;;;;;;;60.67;42.72;;;;;;;;;;1479215;40;20410;-79
2021/05/14 01:52:27;;;;;;;54.88;40.92;;;;;;;;;;1479576;40;20418;-80
2021/05/14 01:53:29;;;;;;;56.83;42.28;;;;;;;;;;1477781;40;21260;-80
2021/05/14 01:54:30;;;;;;;59.03;42.08;;;;;;;;;;1480731;40;20414;-79
2021/05/14 01:55:33;;;;;;;57.95;41.40;;;;;;;;;;1482570;40;20421;-79
2021/05/14 01:56:35;;;;;;;52.22;41.00;;;;;;;;;;1482669;40;20413;-79
2021/05/14 01:57:37;;;;;;;54.22;40.35;;;;;;;;;;1481893;40;20521;-80
2021/05/14 01:58:39;;;;;;;59.63;41.75;;;;;;;;;;1479502;40;20434;-79
2021/05/14 01:59:41;;;;;;;62.17;41.33;;;;;;;;;;1479671;40;20701;-80
2021/05/14 02:00:43;;;;;;;57.45;42.10;;;;;;;;;;1475791;40;20404;-80
2021/05/14 02:01:45;;;;;;;53.37;40.17;;;;;;;;;;1474859;40;20544;-80
2021/05/14 02:02:46;;;;;;;56.83;40.80;;;;;;;;;;1470180;40;20430;-79
2021/05/14 02:03:48;;;;;;;53.45;39.85;;;;;;;;;;1470074;40;20442;-79
2021/05/14 02:04:50;;;;;;;51.08;38.40;;;;;;;;;;1471816;40;20423;-79
2021/05/14 02:05:52;;;;;;;53.08;38.38;;;;;;;;;;1469749;40;20450;-80
2021/05/14 02:06:53;;;;;;;54.20;38.88;;;;;;;;;;1477517;40;20399;-80
2021/05/14 02:07:55;;;;;;;51.10;38.22;;;;;;;;;;1474720;40;20415;-80
2021/05/14 02:08:57;;;;;;;55.15;39.95;;;;;;;;;;1476863;40;20418;-80
2021/05/14 02:09:58;;;;;;;54.65;39.75;;;;;;;;;;1477739;40;20830;-80
2021/05/14 02:11:02;;;;;;;55.65;39.97;;;;;;;;;;1477075;40;20398;-80
2021/05/14 02:12:05;;;;;;;56.55;40.85;;;;;;;;;;1478725;40;20411;-80
2021/05/14 02:13:07;;;;;;;55.35;39.92;;;;;;;;;;1478505;40;20432;-80
2021/05/14 02:14:08;;;;;;;60.28;41.15;;;;;;;;;;1478538;40;20434;-80
2021/05/14 02:15:12;;;;;;;53.00;39.05;;;;;;;;;;1477634;40;20415;-80
2021/05/14 02:16:14;;;;;;;52.03;38.45;;;;;;;;;;1477913;40;20413;-81
2021/05/14 02:17:16;;;;;;;53.88;39.97;;;;;;;;;;1473723;40;20396;-80
2021/05/14 02:18:17;;;;;;;53.78;39.35;;;;;;;;;;1473998;40;20447;-79
2021/05/14 02:19:19;;;;;;;54.30;39.05;;;;;;;;;;1478102;40;20414;-80
2021/05/14 02:20:21;;;;;;;55.25;40.45;;;;;;;;;;1473453;40;21004;-80
2021/05/14 02:21:22;;;;;;;53.78;40.28;;;;;;;;;;1473599;40;20420;-80
2021/05/14 02:22:24;;;;;;;51.95;39.45;;;;;;;;;;1475453;40;20438;-80
2021/05/14 02:23:26;;;;;;;56.03;40.22;;;;;;;;;;1476583;40;20401;-80
2021/05/14 02:24:28;;;;;;;52.35;39.45;;;;;;;;;;1477839;40;20411;-79
2021/05/14 02:25:30;;;;;;;53.30;39.90;;;;;;;;;;1473658;40;20463;-80
2021/05/14 02:26:31;;;;;;;56.15;41.80;;;;;;;;;;1477995;40;20430;-79
2021/05/14 02:27:34;;;;;;;53.78;39.55;;;;;;;;;;1473415;40;20435;-80
2021/05/14 02:28:35;;;;;;;57.97;41.40;;;;;;;;;;1473508;40;21257;-80
2021/05/14 02:29:37;;;;;;;57.13;41.22;;;;;;;;;;1478287;40;20398;-80
2021/05/14 02:30:39;;;;;;;56.83;41.70;;;;;;;;;;1473666;40;20415;-80
2021/05/14 02:31:41;;;;;;;54.67;40.17;;;;;;;;;;1469741;40;20414;-80
2021/05/14 02:32:43;;;;;;;59.13;41.38;;;;;;;;;;1469851;40;20401;-80
2021/05/14 02:33:45;;;;;;;56.20;40.33;;;;;;;;;;1469770;40;20469;-80
2021/05/14 02:34:47;;;;;;;54.15;39.65;;;;;;;;;;1471348;40;20397;-79
2021/05/14 02:35:48;;;;;;;58.47;41.83;;;;;;;;;;1474127;40;20405;-79
2021/05/14 02:36:50;;;;;;;56.53;40.92;;;;;;;;;;1476804;40;20582;-79
2021/05/14 02:37:52;;;;;;;56.45;40.10;;;;;;;;;;1477759;40;20398;-80
2021/05/14 02:38:54;;;;;;;55.85;42.45;;;;;;;;;;1475284;40;20952;-80
2021/05/14 02:39:55;;;;;;;57.45;41.85;;;;;;;;;;1461526;40;20405;-79
2021/05/14 02:40:57;;;;;;;62.25;43.15;;;;;;;;;;1465601;40;20481;-80
2021/05/14 02:41:59;;;;;;;59.30;41.35;;;;;;;;;;1473663;40;20430;-80
2021/05/14 02:43:02;;;;;;;59.80;42.38;;;;;;;;;;1475970;40;20406;-80
2021/05/14 02:44:05;;;;;;;58.30;41.65;;;;;;;;;;1473411;40;20415;-80
2021/05/14 02:45:07;;;;;;;63.88;42.97;;;;;;;;;;1469767;40;20406;-79
2021/05/14 02:46:09;;;;;;;61.60;42.95;;;;;;;;;;1473652;40;20777;-80
2021/05/14 02:47:11;;;;;;;62.25;43.15;;;;;;;;;;1469898;40;20465;-80
2021/05/14 02:48:14;;;;;;;62.63;42.35;;;;;;;;;;1466623;40;21694;-81
2021/05/14 02:49:16;;;;;;;70.18;44.05;;;;;;;;;;1469865;40;20414;-81
2021/05/14 02:50:18;;;;;;;58.83;43.28;;;;;;;;;;1469967;40;20401;-80
2021/05/14 02:51:19;;;;;;;63.17;42.97;;;;;;;;;;1476943;40;20399;-80
2021/05/14 02:52:21;;;;;;;62.55;43.33;;;;;;;;;;1471938;40;20421;-80
2021/05/14 02:53:22;;;;;;;61.00;42.88;;;;;;;;;;1469497;40;20426;-79
2021/05/14 02:54:24;;;;;;;57.05;42.70;;;;;;;;;;1469724;40;20416;-80
2021/05/14 02:55:26;;;;;;;54.08;40.97;;;;;;;;;;1469716;40;20417;-80
2021/05/14 02:56:29;;;;;;;64.18;42.85;;;;;;;;;;1474398;40;20411;-80
2021/05/14 02:57:31;;;;;;;55.20;40.83;;;;;;;;;;1474580;40;20447;-79
2021/05/14 02:58:32;;;;;;;59.70;42.67;;;;;;;;;;1477932;40;20890;-81
2021/05/14 02:59:34;;;;;;;60.65;43.08;;;;;;;;;;1473422;40;20428;-80
2021/05/14 03:00:40;;;;;;;60.13;42.05;;;;;;;;;;1473007;40;20408;-80
2021/05/14 03:01:41;;;;;;;60.97;44.50;;;;;;;;;;1478270;40;20414;-80
2021/05/14 03:02:43;;;;;;;61.78;43.47;;;;;;;;;;1477816;40;20411;-80
2021/05/14 03:03:45;;;;;;;61.75;43.97;;;;;;;;;;1477600;40;20414;-80
2021/05/14 03:04:46;;;;;;;61.00;43.97;;;;;;;;;;1475443;40;20419;-79
2021/05/14 03:05:48;;;;;;;59.63;43.70;;;;;;;;;;1469662;40;20418;-80
2021/05/14 03:06:50;;;;;;;56.95;42.72;;;;;;;;;;1475658;40;20443;-80
2021/05/14 03:07:51;;;;;;;58.15;41.60;;;;;;;;;;1474711;40;20816;-80
2021/05/14 03:08:53;;;;;;;54.27;39.70;;;;;;;;;;1475998;40;20628;-79
2021/05/14 03:09:55;;;;;;;58.38;40.97;;;;;;;;;;1478021;40;20421;-79
2021/05/14 03:10:57;;;;;;;53.75;40.42;;;;;;;;;;1478692;40;20401;-80
2021/05/14 03:11:59;;;;;;;55.03;40.38;;;;;;;;;;1478429;40;20638;-79
2021/05/14 03:13:01;;;;;;;49.10;36.30;;;;;;;;;;1475400;40;20841;-79
2021/05/14 03:14:05;;;;;;;40.80;31.02;;;;;;;;;;1477942;40;20782;-79
2021/05/14 03:15:08;;;;;;;37.78;29.92;;;;;;;;;;1473562;40;20433;-80
2021/05/14 03:16:09;;;;;;;36.13;27.63;;;;;;;;;;1473363;40;20475;-80
2021/05/14 03:17:11;;;;;;;32.13;26.63;;;;;;;;;;1477381;40;20407;-80
2021/05/14 03:18:13;;;;;;;33.35;25.33;;;;;;;;;;1477661;40;20434;-81
2021/05/14 03:19:15;;;;;;;33.50;24.75;;;;;;;;;;1478372;40;20398;-81
2021/05/14 03:20:17;;;;;;;32.33;24.67;;;;;;;;;;1478299;40;20501;-80
2021/05/14 03:21:18;;;;;;;25.17;22.48;;;;;;;;;;1477249;40;20414;-80
2021/05/14 03:22:20;;;;;;;27.58;22.98;;;;;;;;;;1475315;40;20864;-79
2021/05/14 03:23:22;;;;;;;31.17;21.00;;;;;;;;;;1477686;40;20422;-81
2021/05/14 03:24:23;;;;;;;26.15;22.60;;;;;;;;;;1473479;40;20435;-80
2021/05/14 03:25:25;;;;;;;25.25;22.35;;;;;;;;;;1473185;40;20424;-79
2021/05/14 03:26:27;;;;;;;26.60;22.25;;;;;;;;;;1477986;40;20417;-79
2021/05/14 03:27:28;;;;;;;27.67;21.27;;;;;;;;;;1477988;40;20984;-79
2021/05/14 03:28:30;;;;;;;23.48;20.95;;;;;;;;;;1477138;40;20434;-79
2021/05/14 03:29:31;;;;;;;22.83;20.27;;;;;;;;;;1474008;40;20490;-80
2021/05/14 03:30:33;;;;;;;27.02;22.23;;;;;;;;;;1469692;40;20532;-79
2021/05/14 03:31:34;;;;;;;25.80;21.58;;;;;;;;;;1473959;40;20872;-80
2021/05/14 03:32:36;;;;;;;25.92;20.63;;;;;;;;;;1478011;40;20509;-80
2021/05/14 03:33:38;;;;;;;25.60;20.60;;;;;;;;;;1478197;40;20707;-80
2021/05/14 03:34:39;;;;;;;24.38;20.33;;;;;;;;;;1479448;40;20695;-80
2021/05/14 03:35:41;;;;;;;25.20;20.98;;;;;;;;;;1479854;40;20510;-81
2021/05/14 03:36:42;;;;;;;25.30;21.63;;;;;;;;;;1474116;40;20411;-79
2021/05/14 03:37:44;;;;;;;22.97;20.23;;;;;;;;;;1472122;40;20538;-80
2021/05/14 03:38:47;;;;;;;25.98;21.77;;;;;;;;;;1478531;40;20426;-80
2021/05/14 03:39:53;;;;;;;26.50;22.15;;;;;;;;;;1479300;40;20406;-80
2021/05/14 03:40:55;;;;;;;26.60;22.42;;;;;;;;;;1478716;40;20505;-80
2021/05/14 03:43:16;;;;;;;27.88;21.42;;;;;;;;;;1475288;40;20412;-81
2021/05/14 03:44:18;;;;;;;23.63;21.10;;;;;;;;;;1470888;40;20412;-80
2021/05/14 03:45:20;;;;;;;23.38;20.98;;;;;;;;;;1470683;40;20448;-80
2021/05/14 03:46:21;;;;;;;25.10;21.75;;;;;;;;;;1470916;40;20714;-80
2021/05/14 03:47:23;;;;;;;24.52;21.48;;;;;;;;;;1466840;40;20414;-79
2021/05/14 03:48:25;;;;;;;25.60;21.77;;;;;;;;;;1474799;40;20423;-79
2021/05/14 03:49:26;;;;;;;25.70;21.38;;;;;;;;;;1474680;40;20424;-81
2021/05/14 03:50:31;;;;;;;26.58;21.77;;;;;;;;;;1478139;40;20393;-80
2021/05/14 03:51:38;;;;;;;24.55;20.85;;;;;;;;;;1477709;40;20410;-80
2021/05/14 03:52:40;;;;;;;24.00;20.23;;;;;;;;;;1475803;40;20772;-80
2021/05/14 03:53:41;;;;;;;23.98;20.10;;;;;;;;;;1475893;40;20502;-79
2021/05/14 03:54:43;;;;;;;26.40;21.65;;;;;;;;;;1479293;40;20398;-79
2021/05/14 03:55:45;;;;;;;24.77;21.42;;;;;;;;;;1478817;40;20826;-80
2021/05/14 03:56:48;;;;;;;25.33;20.35;;;;;;;;;;1478964;40;20652;-79
2021/05/14 03:57:50;;;;;;;23.00;20.02;;;;;;;;;;1478820;40;20394;-80
2021/05/14 03:58:51;;;;;;;28.00;21.70;;;;;;;;;;1470707;40;20476;-80
2021/05/14 03:59:53;;;;;;;24.73;20.73;;;;;;;;;;1470696;40;21130;-80
2021/05/14 04:00:55;;;;;;;24.15;21.23;;;;;;;;;;1479462;40;20410;-79
2021/05/14 04:01:57;;;;;;;23.58;20.60;;;;;;;;;;1478842;40;20414;-80
2021/05/14 04:03:00;;;;;;;23.45;20.35;;;;;;;;;;1469444;40;20397;-80
2021/05/14 04:04:02;;;;;;;24.92;20.42;;;;;;;;;;1470591;40;20448;-80
2021/05/14 04:05:05;;;;;;;23.90;19.40;;;;;;;;;;1478446;40;20655;-79
2021/05/14 04:06:07;;;;;;;23.67;20.88;;;;;;;;;;1479328;40;20409;-80
2021/05/14 04:07:09;;;;;;;23.63;20.35;;;;;;;;;;1477409;40;20415;-80
2021/05/14 04:08:11;;;;;;;22.55;19.83;;;;;;;;;;1478812;40;20413;-81
2021/05/14 04:09:12;;;;;;;22.90;19.30;;;;;;;;;;1471243;40;20706;-80
2021/05/14 04:10:24;;;;;;;23.98;20.75;;;;;;;;;;1474859;40;20498;-81
2021/05/14 04:15:02;;;;;;;22.85;19.52;;;;;;;;;;1479749;40;20426;-80
2021/05/14 04:16:07;;;;;;;24.20;19.73;;;;;;;;;;1478608;40;20621;-80
2021/05/14 04:17:09;;;;;;;25.20;20.30;;;;;;;;;;1479382;40;20635;-80
2021/05/14 04:18:11;;;;;;;22.02;19.67;;;;;;;;;;1479556;40;20405;-79
2021/05/14 04:19:13;;;;;;;25.13;20.25;;;;;;;;;;1479558;40;20409;-81
2021/05/14 04:20:14;;;;;;;24.33;20.30;;;;;;;;;;1479550;40;20422;-81
2021/05/14 04:21:16;;;;;;;25.85;21.23;;;;;;;;;;1481127;40;20409;-81
2021/05/14 04:22:18;;;;;;;25.00;20.23;;;;;;;;;;1481222;40;20420;-81
2021/05/14 04:23:19;;;;;;;24.08;20.30;;;;;;;;;;1484017;40;20429;-80
2021/05/14 04:24:23;;;;;;;25.60;20.40;;;;;;;;;;1475413;40;20416;-79
2021/05/14 04:25:24;;;;;;;24.10;20.90;;;;;;;;;;1480131;40;20420;-80
2021/05/14 04:26:26;;;;;;;24.08;21.48;;;;;;;;;;1479997;40;20403;-78
2021/05/14 04:27:28;;;;;;;25.85;21.42;;;;;;;;;;1477671;40;20423;-80
2021/05/14 04:28:29;;;;;;;24.67;21.20;;;;;;;;;;1479299;40;20826;-79
2021/05/14 04:29:31;;;;;;;25.48;21.20;;;;;;;;;;1476648;40;20403;-79
2021/05/14 04:30:33;;;;;;;27.27;21.97;;;;;;;;;;1476427;40;20564;-80
2021/05/14 04:31:35;;;;;;;25.75;21.20;;;;;;;;;;1479454;40;20421;-80
2021/05/14 04:32:36;;;;;;;27.67;21.70;;;;;;;;;;1479532;40;20394;-80
2021/05/14 04:33:38;;;;;;;25.65;21.98;;;;;;;;;;1475436;40;20404;-80
2021/05/14 04:34:40;;;;;;;23.98;20.63;;;;;;;;;;1479272;40;20627;-81
2021/05/14 04:35:42;;;;;;;26.02;21.30;;;;;;;;;;1479037;40;20671;-81
2021/05/14 04:36:43;;;;;;;26.25;22.27;;;;;;;;;;1477545;40;20818;-80
2021/05/14 04:37:45;;;;;;;29.08;21.13;;;;;;;;;;1471878;40;20888;-80
2021/05/14 04:38:46;;;;;;;23.63;21.13;;;;;;;;;;1476765;40;20421;-80
2021/05/14 04:39:48;;;;;;;29.15;22.70;;;;;;;;;;1474957;40;20407;-80
2021/05/14 04:40:50;;;;;;;29.63;22.98;;;;;;;;;;1473449;40;20745;-80
2021/05/14 04:41:51;;;;;;;27.20;22.73;;;;;;;;;;1475296;40;20481;-80
2021/05/14 04:42:59;;;;;;;28.58;22.40;;;;;;;;;;1477158;40;20406;-80
2021/05/14 04:44:01;;;;;;;25.92;22.35;;;;;;;;;;1479355;40;20393;-80
2021/05/14 04:45:04;;;;;;;26.50;22.97;;;;;;;;;;1478924;40;20558;-80
2021/05/14 04:46:05;;;;;;;28.98;23.33;;;;;;;;;;1477988;40;20407;-80
2021/05/14 04:47:27;;;;;;;28.48;24.98;;;;;;;;;;1478358;40;20417;-79
2021/05/14 04:48:29;;;;;;;31.02;23.58;;;;;;;;;;1478532;40;20410;-80
2021/05/14 04:49:30;;;;;;;30.38;25.25;;;;;;;;;;1478004;40;20433;-79
2021/05/14 04:50:32;;;;;;;28.33;24.00;;;;;;;;;;1478277;40;20394;-79
2021/05/14 04:51:34;;;;;;;28.90;24.05;;;;;;;;;;1476885;40;20423;-80
2021/05/14 04:52:36;;;;;;;27.67;23.23;;;;;;;;;;1470644;40;20898;-80
2021/05/14 04:53:39;;;;;;;25.08;22.17;;;;;;;;;;1475543;40;20537;-79
2021/05/14 04:54:41;;;;;;;27.70;23.58;;;;;;;;;;1474663;40;20412;-80
2021/05/14 04:55:43;;;;;;;28.20;23.30;;;;;;;;;;1474515;40;20440;-80
2021/05/14 04:56:44;;;;;;;26.05;22.70;;;;;;;;;;1476518;40;20398;-80
2021/05/14 04:57:46;;;;;;;25.17;21.77;;;;;;;;;;1477763;40;20461;-80
2021/05/14 04:58:48;;;;;;;27.13;22.33;;;;;;;;;;1478839;40;20668;-80
2021/05/14 04:59:49;;;;;;;25.77;21.75;;;;;;;;;;1478145;40;20450;-80
2021/05/14 05:00:51;;;;;;;24.70;22.10;;;;;;;;;;1478507;40;20405;-80
2021/05/14 05:01:53;;;;;;;25.08;22.02;;;;;;;;;;1479118;40;20421;-80
2021/05/14 05:02:56;;;;;;;25.25;22.05;;;;;;;;;;1478260;40;20831;-79
2021/05/14 05:03:58;;;;;;;24.30;21.65;;;;;;;;;;1478111;40;20496;-80
2021/05/14 05:05:00;;;;;;;23.73;21.23;;;;;;;;;;1474530;40;20412;-80
2021/05/14 05:06:03;;;;;;;24.40;20.80;;;;;;;;;;1472830;40;20396;-79
2021/05/14 05:07:07;;;;;;;24.63;21.58;;;;;;;;;;1475914;40;20403;-80
2021/05/14 05:08:09;;;;;;;25.20;21.77;;;;;;;;;;1477782;40;20414;-80
2021/05/14 05:09:10;;;;;;;24.70;21.63;;;;;;;;;;1466393;40;20512;-80
2021/05/14 05:10:12;;;;;;;27.75;20.92;;;;;;;;;;1470082;40;20457;-81
2021/05/14 05:11:14;;;;;;;26.48;22.25;;;;;;;;;;1474081;40;20431;-80
2021/05/14 05:12:16;;;;;;;25.65;21.45;;;;;;;;;;1470494;40;20410;-80
2021/05/14 05:13:17;;;;;;;24.35;21.48;;;;;;;;;;1477718;40;20442;-81
2021/05/14 05:14:20;;;;;;;24.60;21.77;;;;;;;;;;1474373;40;20424;-80
2021/05/14 05:15:21;;;;;;;25.60;21.90;;;;;;;;;;1474286;40;20789;-80
2021/05/14 05:16:23;;;;;;;23.95;21.27;;;;;;;;;;1469476;40;20421;-80
2021/05/14 05:17:25;;;;;;;24.42;20.98;;;;;;;;;;1474702;40;20530;-80
2021/05/14 05:18:27;;;;;;;27.38;21.98;;;;;;;;;;1480744;40;20471;-80
2021/05/14 05:19:29;;;;;;;24.13;20.95;;;;;;;;;;1478293;40;20432;-80
2021/05/14 05:20:30;;;;;;;28.63;22.35;;;;;;;;;;1478389;40;20461;-79
2021/05/14 05:21:32;;;;;;;27.65;21.65;;;;;;;;;;1478289;40;20394;-78
2021/05/14 05:22:34;;;;;;;24.10;21.43;;;;;;;;;;1475173;40;20467;-80
2021/05/14 05:23:36;;;;;;;27.50;22.35;;;;;;;;;;1474853;40;20420;-80
2021/05/14 05:24:37;;;;;;;24.70;22.10;;;;;;;;;;1478073;40;20527;-80
2021/05/14 05:25:39;;;;;;;26.20;22.38;;;;;;;;;;1476869;40;20602;-80
2021/05/14 05:26:40;;;;;;;26.25;21.73;;;;;;;;;;1478408;40;20503;-79
2021/05/14 05:27:42;;;;;;;26.52;20.75;;;;;;;;;;1478499;40;20430;-80
2021/05/14 05:28:44;;;;;;;24.30;21.65;;;;;;;;;;1477574;40;20407;-80
2021/05/14 05:29:45;;;;;;;25.60;20.77;;;;;;;;;;1473900;40;20459;-80
2021/05/14 05:30:47;;;;;;;28.95;21.33;;;;;;;;;;1473173;40;20408;-79
2021/05/14 05:31:49;;;;;;;22.80;20.27;;;;;;;;;;1477722;40;20398;-80
2021/05/14 05:32:51;;;;;;;26.45;20.98;;;;;;;;;;1473831;40;20477;-80
2021/05/14 05:33:53;;;;;;;27.60;20.23;;;;;;;;;;1469725;40;20398;-80
2021/05/14 05:34:54;;;;;;;23.20;20.58;;;;;;;;;;1472523;40;20407;-80
2021/05/14 05:35:56;;;;;;;22.85;20.35;;;;;;;;;;1469856;40;20414;-80
2021/05/14 05:36:58;;;;;;;25.90;20.83;;;;;;;;;;1473756;40;20392;-79
2021/05/14 05:37:59;;;;;;;24.65;20.10;;;;;;;;;;1473773;40;20412;-80
2021/05/14 05:39:01;;;;;;;25.20;21.05;;;;;;;;;;1469877;40;20446;-80
2021/05/14 05:40:05;;;;;;;22.08;19.67;;;;;;;;;;1469603;40;20444;-81
2021/05/14 05:41:06;;;;;;;25.30;20.13;;;;;;;;;;1473580;40;20500;-79
2021/05/14 05:42:08;;;;;;;22.98;20.33;;;;;;;;;;1474280;40;20875;-80
2021/05/14 05:43:10;;;;;;;24.87;20.77;;;;;;;;;;1475908;40;20499;-80
2021/05/14 05:44:12;;;;;;;22.30;19.40;;;;;;;;;;1473957;40;20404;-79
2021/05/14 05:45:14;;;;;;;22.05;19.73;;;;;;;;;;1474082;40;20407;-80
2021/05/14 05:46:16;;;;;;;22.95;20.48;;;;;;;;;;1473647;40;20412;-81
2021/05/14 05:47:17;;;;;;;23.42;20.40;;;;;;;;;;1473901;40;20400;-81
2021/05/14 05:48:19;;;;;;;25.63;19.65;;;;;;;;;;1473942;40;20420;-81
2021/05/14 05:49:23;;;;;;;23.55;20.92;;;;;;;;;;1473989;40;20846;-80
2021/05/14 05:50:25;;;;;;;24.08;20.60;;;;;;;;;;1469665;40;20473;-80
2021/05/14 05:51:29;;;;;;;25.35;21.00;;;;;;;;;;1473573;40;20486;-79
2021/05/14 05:52:30;;;;;;;27.23;20.55;;;;;;;;;;1479255;40;20432;-80
2021/05/14 05:53:32;;;;;;;22.50;19.73;;;;;;;;;;1477374;40;20788;-80
2021/05/14 05:54:34;;;;;;;23.85;20.35;;;;;;;;;;1470131;40;20429;-80
2021/05/14 05:55:36;;;;;;;22.20;19.90;;;;;;;;;;1475442;40;20424;-80
2021/05/14 05:56:37;;;;;;;25.13;21.23;;;;;;;;;;1477983;40;20497;-80
2021/05/14 05:57:39;;;;;;;24.02;21.42;;;;;;;;;;1474223;40;20418;-80
2021/05/14 05:58:40;;;;;;;24.98;21.02;;;;;;;;;;1477494;40;20473;-79
2021/05/14 05:59:42;;;;;;;24.30;20.42;;;;;;;;;;1473857;40;20470;-80
2021/05/14 06:00:44;;;;;;;23.67;21.05;;;;;;;;;;1469456;40;20485;-80
2021/05/14 06:01:45;;;;;;;23.88;21.38;;;;;;;;;;1473985;40;20821;-80
2021/05/14 06:02:50;;;;;;;25.90;23.10;;;;;;;;;;1473871;40;20689;-80
2021/05/14 06:03:52;;;;;;;23.40;21.00;;;;;;;;;;1473389;40;20432;-80
2021/05/14 06:04:53;;;;;;;28.48;23.83;;;;;;;;;;1476113;40;20426;-80
2021/05/14 06:05:55;;;;;;;26.58;23.58;;;;;;;;;;1473718;40;20413;-80